Time;durP1;ratioP1;P1;durP2;ratioP2;P2;SDS_P1;SDS_P2;PMS_P1;PMS_P2;Temp;Humidity;BMP_temperature;BMP_pressure;BME280_temperature;BME280_humidity;BME280_pressure;Samples;Min_cycle;Max_cycle;Signal;HPM_P1;HPM_P2
2023/04/16 00:01:30;;;;;;;;;;;;;;;5.95;66.48;101698.59;5074507;28;2184;-78
2023/04/16 00:03:56;;;;;;;;;;;;;;;5.99;65.89;101715.97;5080034;28;2108;-80
2023/04/16 00:06:23;;;;;;;;;;;;;;;5.96;66.26;101716.28;5070101;28;2295;-79
2023/04/16 00:08:50;;;;;;;;;;;;;;;5.96;66.33;101705.59;5077034;28;2183;-77
2023/04/16 00:11:17;;;;;;;;;;;;;;;5.99;65.94;101705.28;5077754;28;2081;-78
2023/04/16 00:13:43;;;;;;;;;;;;;;;5.86;66.59;101704.88;5080168;28;2059;-76
2023/04/16 00:16:10;;;;;;;;;;;;;;;5.76;66.86;101702.31;5076955;28;2770;-76
2023/04/16 00:18:36;;;;;;;;;;;;;;;5.89;66.38;101704.53;5053946;28;2090;-79
2023/04/16 00:21:03;;;;;;;;;;;;;;;5.80;66.54;101710.88;5075808;28;4923;-78
2023/04/16 00:23:29;;;;;;;;;;;;;;;5.99;65.89;101702.59;5079641;28;4339;-78
2023/04/16 00:25:58;;;;;;;;;;;;;;;5.87;66.44;101710.03;5073316;28;2228;-78
2023/04/16 00:28:25;;;;;;;;;;;;;;;5.76;66.72;101704.13;5077434;28;3295;-77
2023/04/16 00:30:51;;;;;;;;;;;;;;;5.77;66.45;101703.16;5077570;28;2155;-78
2023/04/16 00:33:18;;;;;;;;;;;;;;;5.76;66.77;101715.66;5079963;28;2451;-78
2023/04/16 00:35:44;;;;;;;;;;;;;;;5.76;66.73;101713.00;5076321;28;2113;-79
2023/04/16 00:38:11;;;;;;;;;;;;;;;5.70;66.97;101711.78;5061929;28;2057;-78
2023/04/16 00:40:37;;;;;;;;;;;;;;;5.68;66.98;101713.81;5078835;28;4244;-78
2023/04/16 00:43:04;;;;;;;;;;;;;;;5.68;67.04;101711.13;5079830;28;2610;-77
2023/04/16 00:45:31;;;;;;;;;;;;;;;5.59;67.24;101711.22;5079471;28;1817;-79
2023/04/16 00:47:57;;;;;;;;;;;;;;;5.62;67.06;101714.44;5082767;28;984;-79
2023/04/16 00:50:24;;;;;;;;;;;;;;;5.70;66.90;101708.28;5084258;28;1933;-78
2023/04/16 00:52:50;;;;;;;;;;;;;;;5.72;66.84;101713.50;5066311;28;1588;-78
2023/04/16 00:55:17;;;;;;;;;;;;;;;5.45;67.86;101718.03;5084241;28;1526;-79
2023/04/16 00:57:44;;;;;;;;;;;;;;;5.58;67.18;101710.41;5084586;28;1997;-79
2023/04/16 01:00:10;;;;;;;;;;;;;;;5.66;67.04;101715.78;5084656;28;1657;-76
2023/04/16 01:02:37;;;;;;;;;;;;;;;5.39;67.77;101715.97;5084203;28;1972;-76
2023/04/16 01:05:04;;;;;;;;;;;;;;;5.69;66.78;101714.63;5085180;28;1521;-78
2023/04/16 01:07:30;;;;;;;;;;;;;;;5.39;67.72;101711.47;5084759;28;1014;-77
2023/04/16 01:09:57;;;;;;;;;;;;;;;5.46;67.67;101719.69;5083940;28;1358;-77
2023/04/16 01:12:23;;;;;;;;;;;;;;;5.43;67.75;101720.00;5065407;28;1038;-80
2023/04/16 01:14:50;;;;;;;;;;;;;;;5.66;66.97;101718.47;5084639;28;1752;-77
2023/04/16 01:17:16;;;;;;;;;;;;;;;5.59;66.93;101713.91;5086240;28;1963;-76
2023/04/16 01:19:43;;;;;;;;;;;;;;;5.51;67.31;101722.72;5082410;28;4512;-77
2023/04/16 01:22:09;;;;;;;;;;;;;;;5.30;68.09;101719.59;5067814;28;1225;-79
2023/04/16 01:24:36;;;;;;;;;;;;;;;5.59;67.12;101717.44;5079867;28;2580;-79
2023/04/16 01:27:03;;;;;;;;;;;;;;;5.40;67.54;101714.97;5068301;28;1775;-78
2023/04/16 01:29:29;;;;;;;;;;;;;;;5.35;67.56;101714.59;5066322;28;1766;-78
2023/04/16 01:31:56;;;;;;;;;;;;;;;5.39;67.43;101721.31;5067881;28;4958;-78
2023/04/16 01:34:22;;;;;;;;;;;;;;;5.35;67.74;101725.28;5067426;28;1924;-79
2023/04/16 01:36:49;;;;;;;;;;;;;;;5.35;67.53;101719.94;5066630;28;4324;-79
2023/04/16 01:39:18;;;;;;;;;;;;;;;5.32;67.73;101722.94;5083326;28;1446;-79
2023/04/16 01:41:44;;;;;;;;;;;;;;;5.20;68.27;101723.19;5083296;28;1363;-79
2023/04/16 01:44:11;;;;;;;;;;;;;;;5.38;67.82;101722.31;5064582;28;2795;-79
2023/04/16 01:46:37;;;;;;;;;;;;;;;5.41;67.65;101719.31;5078763;28;2454;-78
2023/04/16 01:49:04;;;;;;;;;;;;;;;5.42;67.53;101724.50;5064777;28;4199;-79
2023/04/16 01:51:31;;;;;;;;;;;;;;;5.34;67.78;101716.44;5074693;28;2088;-79
2023/04/16 01:53:57;;;;;;;;;;;;;;;5.34;67.70;101723.63;5073636;28;2170;-79
2023/04/16 01:56:23;;;;;;;;;;;;;;;5.23;68.04;101722.91;5058769;28;2187;-78
2023/04/16 01:58:50;;;;;;;;;;;;;;;5.28;67.91;101717.06;5073367;28;2121;-77
2023/04/16 02:01:17;;;;;;;;;;;;;;;5.32;67.55;101715.75;5073655;28;2085;-79
2023/04/16 02:03:43;;;;;;;;;;;;;;;5.23;67.89;101714.88;5075476;28;2302;-80
2023/04/16 02:06:10;;;;;;;;;;;;;;;5.34;67.73;101718.28;5077326;28;2049;-77
2023/04/16 02:08:36;;;;;;;;;;;;;;;5.19;68.09;101721.50;5075522;28;2147;-78
2023/04/16 02:11:03;;;;;;;;;;;;;;;5.12;68.26;101723.13;5074806;28;2069;-79
2023/04/16 02:13:29;;;;;;;;;;;;;;;5.33;67.83;101724.63;5058013;28;2342;-79
2023/04/16 02:15:56;;;;;;;;;;;;;;;5.26;67.81;101716.38;5056953;28;2103;-78
2023/04/16 02:18:22;;;;;;;;;;;;;;;5.15;68.08;101714.81;5065079;28;2188;-79
2023/04/16 02:20:49;;;;;;;;;;;;;;;4.67;67.97;101635.19;5056407;28;2795;-78
2023/04/16 02:23:16;;;;;;;;;;;;;;;5.29;67.67;101717.91;5042702;28;2180;-78
2023/04/16 02:25:42;;;;;;;;;;;;;;;5.20;67.74;101719.69;5040373;28;2137;-78
2023/04/16 02:28:09;;;;;;;;;;;;;;;5.14;68.11;101717.63;5062377;28;2034;-78
2023/04/16 02:30:35;;;;;;;;;;;;;;;5.21;67.97;101719.53;5057395;28;2081;-79
2023/04/16 02:33:04;;;;;;;;;;;;;;;5.12;68.06;101716.97;5057213;28;4972;-78
2023/04/16 02:35:30;;;;;;;;;;;;;;;4.97;68.60;101722.84;5059313;28;3197;-77
2023/04/16 02:37:57;;;;;;;;;;;;;;;4.85;69.17;101724.06;5057109;28;2073;-76
2023/04/16 02:40:24;;;;;;;;;;;;;;;5.19;68.19;101726.03;5058524;28;4046;-76
2023/04/16 02:42:50;;;;;;;;;;;;;;;5.07;68.41;101720.09;5069973;28;2058;-79
2023/04/16 02:45:17;;;;;;;;;;;;;;;4.98;68.52;101729.88;5055713;28;2071;-79
2023/04/16 02:47:43;;;;;;;;;;;;;;;4.92;68.48;101727.81;5041062;28;2076;-78
2023/04/16 02:50:10;;;;;;;;;;;;;;;5.17;67.95;101723.50;5065022;28;2042;-77
2023/04/16 02:52:36;;;;;;;;;;;;;;;4.97;68.71;101722.84;5061394;28;3958;-79
2023/04/16 02:55:03;;;;;;;;;;;;;;;4.89;68.81;101711.28;5057294;28;2070;-78
2023/04/16 02:57:29;;;;;;;;;;;;;;;5.01;68.54;101715.38;5057986;28;2164;-79
2023/04/16 02:59:56;;;;;;;;;;;;;;;4.90;68.89;101718.28;5058649;28;2136;-78
2023/04/16 03:02:22;;;;;;;;;;;;;;;5.05;68.48;101711.38;5059570;28;2487;-79
2023/04/16 03:04:49;;;;;;;;;;;;;;;5.06;68.46;101715.75;5065330;28;2093;-78
2023/04/16 03:07:17;;;;;;;;;;;;;;;4.98;68.48;101710.34;5057844;28;2089;-79
2023/04/16 03:09:43;;;;;;;;;;;;;;;4.92;68.67;101709.13;5046038;28;2062;-78
2023/04/16 03:12:10;;;;;;;;;;;;;;;4.89;68.93;101708.59;5050211;28;2901;-78
2023/04/16 03:14:36;;;;;;;;;;;;;;;4.90;68.81;101707.59;5059611;28;2121;-78
2023/04/16 03:17:03;;;;;;;;;;;;;;;4.84;69.07;101710.88;5053282;28;2138;-77
2023/04/16 03:19:29;;;;;;;;;;;;;;;4.93;68.65;101717.97;5059538;28;2127;-78
2023/04/16 03:21:56;;;;;;;;;;;;;;;4.85;68.86;101717.91;5046422;28;2149;-79
2023/04/16 03:24:23;;;;;;;;;;;;;;;4.80;69.03;101715.69;5060935;28;2070;-78
2023/04/16 03:26:49;;;;;;;;;;;;;;;4.80;69.05;101717.53;5058087;28;2140;-77
2023/04/16 03:29:16;;;;;;;;;;;;;;;4.76;69.30;101707.16;5060089;28;2236;-79
2023/04/16 03:31:42;;;;;;;;;;;;;;;4.85;68.86;101707.22;5053775;28;2034;-79
2023/04/16 03:34:09;;;;;;;;;;;;;;;4.86;68.91;101708.91;5059924;28;2112;-78
2023/04/16 03:36:36;;;;;;;;;;;;;;;4.77;69.17;101711.50;5068007;28;1988;-79
2023/04/16 03:39:02;;;;;;;;;;;;;;;4.76;69.24;101712.50;5043066;28;1896;-78
2023/04/16 03:41:29;;;;;;;;;;;;;;;4.79;69.18;101711.34;5062793;28;4575;-78
2023/04/16 03:43:55;;;;;;;;;;;;;;;4.75;69.14;101718.81;5069800;28;1668;-79
2023/04/16 03:46:22;;;;;;;;;;;;;;;4.81;69.07;101717.38;5061208;28;2716;-79
2023/04/16 03:48:49;;;;;;;;;;;;;;;4.72;69.28;101716.47;5039527;28;3606;-78
2023/04/16 03:51:15;;;;;;;;;;;;;;;4.74;69.21;101717.16;5060898;28;2252;-78
2023/04/16 03:53:42;;;;;;;;;;;;;;;4.61;69.45;101707.84;5054736;28;2208;-79
2023/04/16 03:56:08;;;;;;;;;;;;;;;4.71;69.34;101721.97;5054767;28;2673;-78
2023/04/16 03:58:35;;;;;;;;;;;;;;;4.70;69.26;101715.75;5034397;28;2044;-79
2023/04/16 04:01:01;;;;;;;;;;;;;;;4.81;69.36;101717.38;5048394;28;2037;-78
2023/04/16 04:03:28;;;;;;;;;;;;;;;4.88;68.61;101718.44;5054301;28;2191;-79
2023/04/16 04:05:55;;;;;;;;;;;;;;;4.81;68.95;101725.38;5039391;28;2257;-79
2023/04/16 04:08:21;;;;;;;;;;;;;;;4.74;68.84;101719.81;5058156;28;3171;-79
2023/04/16 04:10:48;;;;;;;;;;;;;;;4.68;69.26;101725.78;5056532;28;2088;-79
2023/04/16 04:13:14;;;;;;;;;;;;;;;4.73;69.08;101723.47;5071024;28;2153;-79
2023/04/16 04:15:41;;;;;;;;;;;;;;;4.72;69.20;101720.97;5062003;28;2026;-78
2023/04/16 04:18:07;;;;;;;;;;;;;;;4.70;69.37;101720.25;5059276;28;2065;-77
2023/04/16 04:20:34;;;;;;;;;;;;;;;4.71;69.17;101728.13;5063030;28;1765;-79
2023/04/16 04:23:00;;;;;;;;;;;;;;;4.74;69.16;101732.34;5057372;28;1954;-77
2023/04/16 04:25:27;;;;;;;;;;;;;;;4.71;69.13;101733.47;5031522;28;2113;-79
2023/04/16 04:27:53;;;;;;;;;;;;;;;4.68;69.24;101739.13;5037891;28;2093;-79
2023/04/16 04:30:20;;;;;;;;;;;;;;;4.69;69.27;101729.28;5028029;28;2076;-77
2023/04/16 04:32:46;;;;;;;;;;;;;;;4.74;68.89;101730.50;5037900;28;2079;-79
2023/04/16 04:35:13;;;;;;;;;;;;;;;4.83;68.59;101728.75;5034976;28;2580;-78
2023/04/16 04:37:40;;;;;;;;;;;;;;;4.82;68.54;101727.03;5040661;28;2105;-77
2023/04/16 04:40:06;;;;;;;;;;;;;;;4.72;68.85;101727.13;5035780;28;2091;-77
2023/04/16 04:42:33;;;;;;;;;;;;;;;4.68;69.04;101724.94;5033277;28;5108;-78
2023/04/16 04:44:59;;;;;;;;;;;;;;;4.69;69.05;101734.63;5051005;28;4119;-78
2023/04/16 04:47:26;;;;;;;;;;;;;;;4.67;69.01;101741.91;5037057;28;2204;-79
2023/04/16 04:49:52;;;;;;;;;;;;;;;4.70;69.18;101741.63;5035345;28;3113;-78
2023/04/16 04:52:19;;;;;;;;;;;;;;;4.66;69.13;101743.75;5036215;28;2199;-79
2023/04/16 04:54:46;;;;;;;;;;;;;;;4.69;68.97;101745.28;5049787;28;2180;-79
2023/04/16 04:57:12;;;;;;;;;;;;;;;4.66;69.33;101745.59;5042566;28;2118;-79
2023/04/16 04:59:39;;;;;;;;;;;;;;;4.64;69.34;101750.22;5050401;28;2575;-77
2023/04/16 05:02:06;;;;;;;;;;;;;;;4.68;69.25;101752.47;5051413;28;3617;-78
2023/04/16 05:04:32;;;;;;;;;;;;;;;4.72;68.98;101742.31;5050665;28;2075;-76
2023/04/16 05:06:59;;;;;;;;;;;;;;;4.71;68.90;101754.00;5052374;28;2193;-78
2023/04/16 05:09:25;;;;;;;;;;;;;;;4.64;69.15;101751.06;5060324;28;2789;-77
2023/04/16 05:11:52;;;;;;;;;;;;;;;4.70;69.06;101747.78;5050096;28;2402;-79
2023/04/16 05:14:18;;;;;;;;;;;;;;;4.75;68.76;101748.19;5051773;28;2365;-78
2023/04/16 05:16:45;;;;;;;;;;;;;;;4.69;68.88;101748.78;5054829;28;2227;-78
2023/04/16 05:19:11;;;;;;;;;;;;;;;4.67;69.33;101745.44;5045980;28;2161;-79
2023/04/16 05:21:39;;;;;;;;;;;;;;;4.67;69.13;101745.44;5049586;28;2291;-79
2023/04/16 05:24:05;;;;;;;;;;;;;;;4.66;69.13;101759.78;5060290;28;2248;-79
2023/04/16 05:26:32;;;;;;;;;;;;;;;4.63;69.22;101761.91;5070703;28;2078;-78
2023/04/16 05:28:58;;;;;;;;;;;;;;;4.62;69.40;101760.22;5052643;28;2199;-79
2023/04/16 05:31:25;;;;;;;;;;;;;;;4.65;69.06;101763.44;5069886;28;2231;-79
2023/04/16 05:33:51;;;;;;;;;;;;;;;4.62;69.23;101765.53;5072203;28;2117;-79
2023/04/16 05:36:18;;;;;;;;;;;;;;;4.61;69.35;101763.88;5074794;28;2093;-78
2023/04/16 05:38:44;;;;;;;;;;;;;;;4.62;69.34;101761.06;5072662;28;2081;-79
2023/04/16 05:41:11;;;;;;;;;;;;;;;4.66;69.21;101766.94;5076171;28;3984;-78
2023/04/16 05:43:38;;;;;;;;;;;;;;;4.62;69.25;101766.41;5061893;28;3663;-78
2023/04/16 05:46:04;;;;;;;;;;;;;;;4.61;69.18;101770.03;5061726;28;2654;-78
2023/04/16 05:48:31;;;;;;;;;;;;;;;4.58;69.41;101765.00;5079664;28;2096;-79
2023/04/16 05:50:57;;;;;;;;;;;;;;;4.59;69.20;101774.72;5065795;28;2205;-78
2023/04/16 05:53:24;;;;;;;;;;;;;;;4.59;68.92;101769.38;5076139;28;1998;-77
2023/04/16 05:55:50;;;;;;;;;;;;;;;4.61;69.26;101769.22;5082580;28;2180;-77
2023/04/16 05:58:17;;;;;;;;;;;;;;;4.58;69.24;101759.69;5060120;28;2284;-77
2023/04/16 06:00:43;;;;;;;;;;;;;;;4.58;69.20;101775.69;5077625;28;2092;-79
2023/04/16 06:03:10;;;;;;;;;;;;;;;4.57;69.23;101768.69;5070608;28;2054;-76
2023/04/16 06:05:36;;;;;;;;;;;;;;;4.58;69.22;101780.19;5081514;28;2001;-79
2023/04/16 06:08:03;;;;;;;;;;;;;;;4.58;69.21;101772.19;5067398;28;3690;-78
2023/04/16 06:10:30;;;;;;;;;;;;;;;4.58;69.35;101774.84;5080790;28;2164;-79
2023/04/16 06:12:56;;;;;;;;;;;;;;;4.58;69.17;101782.84;5081772;28;2406;-78
2023/04/16 06:15:23;;;;;;;;;;;;;;;4.58;69.14;101786.38;5080447;28;2065;-79
2023/04/16 06:17:49;;;;;;;;;;;;;;;4.58;69.34;101785.53;5066694;28;4756;-78
2023/04/16 06:20:16;;;;;;;;;;;;;;;4.56;69.39;101793.69;5063258;28;4780;-79
2023/04/16 06:22:43;;;;;;;;;;;;;;;4.57;69.14;101795.38;5052354;28;3347;-78
2023/04/16 06:25:09;;;;;;;;;;;;;;;4.57;69.39;101797.19;5081918;28;2173;-78
2023/04/16 06:27:37;;;;;;;;;;;;;;;4.57;69.31;101790.03;5066094;28;2215;-76
2023/04/16 06:30:03;;;;;;;;;;;;;;;4.55;69.17;101800.84;5074591;28;2137;-76
2023/04/16 06:32:30;;;;;;;;;;;;;;;4.55;69.32;101798.16;5082044;28;2776;-77
2023/04/16 06:34:57;;;;;;;;;;;;;;;4.58;69.07;101798.88;5075560;28;3323;-79
2023/04/16 06:37:24;;;;;;;;;;;;;;;4.57;69.48;101800.69;5061745;28;2076;-77
2023/04/16 06:39:50;;;;;;;;;;;;;;;4.57;69.40;101799.88;5065913;28;2144;-79
2023/04/16 06:42:17;;;;;;;;;;;;;;;4.57;69.20;101802.53;5071960;28;1860;-77
2023/04/16 06:44:43;;;;;;;;;;;;;;;4.56;69.17;101804.38;5076998;28;2057;-77
2023/04/16 06:47:10;;;;;;;;;;;;;;;4.61;69.35;101801.22;5047095;28;3926;-75
2023/04/16 06:49:38;;;;;;;;;;;;;;;4.94;69.05;101797.94;5066894;28;1950;-77
2023/04/16 06:52:04;;;;;;;;;;;;;;;4.88;69.88;101806.56;5067509;28;2620;-76
2023/04/16 06:54:31;;;;;;;;;;;;;;;4.72;70.59;101807.19;5068416;28;2603;-77
2023/04/16 06:56:57;;;;;;;;;;;;;;;4.66;70.60;101810.47;5065245;28;2211;-77
2023/04/16 06:59:24;;;;;;;;;;;;;;;4.65;70.61;101810.63;5053098;28;2605;-76
2023/04/16 07:01:50;;;;;;;;;;;;;;;4.65;70.31;101815.97;5080048;28;2215;-76
2023/04/16 07:04:17;;;;;;;;;;;;;;;4.64;70.25;101808.94;5082608;28;2160;-79
2023/04/16 07:06:44;;;;;;;;;;;;;;;4.63;70.35;101816.13;5077124;28;2580;-77
2023/04/16 07:09:10;;;;;;;;;;;;;;;4.64;70.16;101811.59;5060509;28;2307;-78
2023/04/16 07:11:37;;;;;;;;;;;;;;;4.64;69.84;101815.13;5061391;28;2308;-77
2023/04/16 07:14:03;;;;;;;;;;;;;;;4.65;69.90;101814.16;5063684;28;2149;-78
2023/04/16 07:16:30;;;;;;;;;;;;;;;4.64;69.91;101822.28;5065322;28;1819;-78
2023/04/16 07:18:56;;;;;;;;;;;;;;;4.64;69.90;101820.44;5079357;28;1914;-78
2023/04/16 07:21:23;;;;;;;;;;;;;;;4.65;69.89;101816.81;5070185;28;1670;-77
2023/04/16 07:23:49;;;;;;;;;;;;;;;4.65;69.80;101818.66;5048857;28;4600;-78
2023/04/16 07:26:16;;;;;;;;;;;;;;;4.69;69.66;101822.69;5066345;28;3913;-77
2023/04/16 07:28:42;;;;;;;;;;;;;;;4.69;69.71;101817.34;5067106;28;3849;-78
2023/04/16 07:31:09;;;;;;;;;;;;;;;4.65;69.65;101819.47;5058139;28;1682;-77
2023/04/16 07:33:35;;;;;;;;;;;;;;;4.65;69.65;101826.66;5066449;28;1827;-80
2023/04/16 07:36:02;;;;;;;;;;;;;;;4.65;69.43;101814.16;5061749;28;1843;-78
2023/04/16 07:38:29;;;;;;;;;;;;;;;4.64;69.80;101817.78;5066822;28;1997;-79
2023/04/16 07:40:55;;;;;;;;;;;;;;;4.66;69.51;101822.97;5067001;28;3054;-79
2023/04/16 07:43:24;;;;;;;;;;;;;;;4.65;69.47;101832.81;5066744;28;1981;-80
2023/04/16 07:45:50;;;;;;;;;;;;;;;4.65;69.54;101824.81;5066988;28;1769;-77
2023/04/16 07:48:17;;;;;;;;;;;;;;;4.65;69.76;101832.00;5073368;28;2006;-79
2023/04/16 07:50:43;;;;;;;;;;;;;;;4.67;69.41;101835.31;5076541;28;2113;-77
2023/04/16 07:53:10;;;;;;;;;;;;;;;4.76;69.08;101829.09;5077935;28;2387;-77
2023/04/16 07:55:36;;;;;;;;;;;;;;;4.74;69.13;101826.59;5053450;28;1615;-78
2023/04/16 07:58:03;;;;;;;;;;;;;;;4.70;69.34;101827.84;5071254;28;2153;-77
2023/04/16 08:00:29;;;;;;;;;;;;;;;4.67;69.25;101836.16;5075946;28;2244;-77
2023/04/16 08:02:56;;;;;;;;;;;;;;;4.68;69.34;101839.69;5057952;28;2229;-78
2023/04/16 08:05:22;;;;;;;;;;;;;;;4.67;69.50;101835.31;5064878;28;2010;-79
2023/04/16 08:07:49;;;;;;;;;;;;;;;4.68;69.28;101845.03;5065509;28;2042;-77
2023/04/16 08:10:15;;;;;;;;;;;;;;;4.67;69.32;101841.50;5049709;28;1910;-78
2023/04/16 08:12:42;;;;;;;;;;;;;;;4.67;69.27;101836.16;5064106;28;2074;-77
2023/04/16 08:15:08;;;;;;;;;;;;;;;4.67;69.61;101846.84;5066767;28;2132;-77
2023/04/16 08:17:36;;;;;;;;;;;;;;;4.67;69.20;101846.84;5067438;28;2026;-77
2023/04/16 08:20:02;;;;;;;;;;;;;;;4.67;69.28;101846.84;5066202;28;2142;-78
2023/04/16 08:22:29;;;;;;;;;;;;;;;4.67;69.30;101838.81;5064699;28;1726;-80
2023/04/16 08:24:56;;;;;;;;;;;;;;;4.66;69.27;101839.81;5048915;28;1952;-78
2023/04/16 08:27:22;;;;;;;;;;;;;;;4.67;69.33;101841.50;5035243;28;1984;-79
2023/04/16 08:29:49;;;;;;;;;;;;;;;4.67;69.35;101849.50;5064174;28;4610;-78
2023/04/16 08:32:15;;;;;;;;;;;;;;;4.71;69.26;101848.22;5047869;28;4260;-77
2023/04/16 08:34:42;;;;;;;;;;;;;;;4.71;69.36;101852.75;5065116;28;1901;-78
2023/04/16 08:37:08;;;;;;;;;;;;;;;4.71;69.18;101855.41;5067529;28;3996;-78
2023/04/16 08:39:35;;;;;;;;;;;;;;;4.72;69.12;101855.25;5068468;28;1981;-77
2023/04/16 08:42:02;;;;;;;;;;;;;;;4.71;69.03;101848.22;5064897;28;1999;-79
2023/04/16 08:44:28;;;;;;;;;;;;;;;4.69;69.25;101857.38;5069775;28;2100;-78
2023/04/16 08:46:56;;;;;;;;;;;;;;;4.69;69.32;101855.53;5080324;28;2020;-78
2023/04/16 08:49:23;;;;;;;;;;;;;;;4.69;69.32;101854.72;5080012;28;3349;-78
2023/04/16 08:51:50;;;;;;;;;;;;;;;4.70;69.21;101867.88;5081785;28;1322;-77
2023/04/16 08:54:17;;;;;;;;;;;;;;;4.71;69.26;101866.91;5081428;28;1021;-77
2023/04/16 08:56:43;;;;;;;;;;;;;;;4.32;69.27;101799.56;5074480;28;1697;-79
2023/04/16 08:59:10;;;;;;;;;;;;;;;4.71;69.19;101860.75;5052354;28;1919;-79
2023/04/16 09:01:40;;;;;;;;;;;;;;;4.73;69.17;101866.75;5067876;28;1793;-78
2023/04/16 09:04:07;;;;;;;;;;;;;;;4.72;69.22;101860.59;5065166;28;1639;-77
2023/04/16 09:06:33;;;;;;;;;;;;;;;4.73;69.15;101864.91;5061103;28;2016;-77
2023/04/16 09:09:03;;;;;;;;;;;;;;;4.73;69.18;101869.41;5082685;28;1942;-79
2023/04/16 09:11:29;;;;;;;;;;;;;;;4.73;69.21;101861.41;5085610;28;1518;-77
2023/04/16 09:13:56;;;;;;;;;;;;;;;4.72;69.14;101857.91;5063556;28;2062;-78
2023/04/16 09:16:22;;;;;;;;;;;;;;;4.73;68.98;101864.91;5081948;28;1657;-78
2023/04/16 09:18:49;;;;;;;;;;;;;;;4.74;68.99;101861.28;5085133;28;1906;-77
2023/04/16 09:21:15;;;;;;;;;;;;;;;4.75;69.13;101862.13;5065433;28;2042;-78
2023/04/16 09:23:42;;;;;;;;;;;;;;;4.75;69.08;101864.78;5082976;28;2109;-77
2023/04/16 09:26:09;;;;;;;;;;;;;;;4.75;69.34;101868.28;5066148;28;2056;-78
2023/04/16 09:28:36;;;;;;;;;;;;;;;4.74;69.01;101861.28;5066990;28;2098;-79
2023/04/16 09:31:02;;;;;;;;;;;;;;;4.76;69.14;101861.13;5081644;28;5078;-78
2023/04/16 09:33:29;;;;;;;;;;;;;;;4.76;69.17;101874.47;5066703;28;5015;-78
2023/04/16 09:35:55;;;;;;;;;;;;;;;4.76;68.95;101867.31;5082265;28;1636;-78
2023/04/16 09:38:22;;;;;;;;;;;;;;;4.76;69.05;101863.78;5082684;28;5196;-76
2023/04/16 09:40:48;;;;;;;;;;;;;;;4.76;69.00;101864.66;5066372;28;1915;-78
2023/04/16 09:43:15;;;;;;;;;;;;;;;4.77;69.09;101865.47;5081545;28;2196;-79
2023/04/16 09:45:41;;;;;;;;;;;;;;;4.78;69.03;101861.81;5083416;28;1564;-77
2023/04/16 09:48:08;;;;;;;;;;;;;;;4.77;69.21;101860.97;5084216;28;1017;-78
2023/04/16 09:50:34;;;;;;;;;;;;;;;4.78;69.08;101865.31;5084478;28;3556;-78
2023/04/16 09:53:01;;;;;;;;;;;;;;;4.80;68.93;101859.00;5066375;28;1528;-78
2023/04/16 09:55:28;;;;;;;;;;;;;;;4.80;69.11;101869.69;5084663;28;1549;-78
2023/04/16 09:57:54;;;;;;;;;;;;;;;4.79;69.08;101866.16;5082901;28;2049;-78
2023/04/16 10:00:21;;;;;;;;;;;;;;;4.82;68.96;101865.03;5082196;28;1987;-79
2023/04/16 10:02:47;;;;;;;;;;;;;;;4.82;68.98;101865.03;5083616;28;1601;-77
2023/04/16 10:05:17;;;;;;;;;;;;;;;4.82;69.04;101871.19;5061565;28;2003;-77
2023/04/16 10:07:44;;;;;;;;;;;;;;;4.83;69.05;101866.72;5066208;28;2025;-77
2023/04/16 10:10:10;;;;;;;;;;;;;;;4.83;68.92;101869.38;5066560;28;2105;-78
2023/04/16 10:12:39;;;;;;;;;;;;;;;4.83;69.05;101872.88;5071285;28;2243;-75
2023/04/16 10:15:06;;;;;;;;;;;;;;;4.85;69.03;101878.06;5068672;28;1938;-77
2023/04/16 10:17:32;;;;;;;;;;;;;;;4.84;69.03;101869.22;5050530;28;1810;-78
2023/04/16 10:20:00;;;;;;;;;;;;;;;4.85;69.04;101873.56;5069238;28;1973;-76
2023/04/16 10:22:26;;;;;;;;;;;;;;;4.86;69.03;101863.75;5077145;28;2089;-78
2023/04/16 10:24:53;;;;;;;;;;;;;;;4.88;68.86;101873.28;5082653;28;2323;-78
2023/04/16 10:27:19;;;;;;;;;;;;;;;4.88;68.93;101872.44;5083134;28;1033;-77
2023/04/16 10:29:46;;;;;;;;;;;;;;;4.86;68.94;101869.91;5078138;28;1852;-78
2023/04/16 10:32:12;;;;;;;;;;;;;;;4.88;68.92;101872.44;5081983;28;2152;-78
2023/04/16 10:34:39;;;;;;;;;;;;;;;4.90;68.92;101873.97;5082869;28;1118;-77
2023/04/16 10:37:05;;;;;;;;;;;;;;;4.91;68.81;101880.13;5079452;28;4897;-78
2023/04/16 10:39:33;;;;;;;;;;;;;;;4.93;68.92;101875.50;5083087;28;1913;-77
2023/04/16 10:42:00;;;;;;;;;;;;;;;4.93;68.89;101879.00;5082237;28;4050;-79
2023/04/16 10:44:26;;;;;;;;;;;;;;;4.92;69.00;101876.50;5078127;28;2295;-78
2023/04/16 10:46:53;;;;;;;;;;;;;;;4.97;68.92;101876.84;5069209;28;1890;-78
2023/04/16 10:49:20;;;;;;;;;;;;;;;4.96;68.77;101872.53;5068748;28;1581;-77
2023/04/16 10:51:46;;;;;;;;;;;;;;;4.95;68.87;101873.53;5065337;28;2002;-79
2023/04/16 10:54:13;;;;;;;;;;;;;;;4.97;68.92;101880.41;5053570;28;4043;-79
2023/04/16 10:56:39;;;;;;;;;;;;;;;5.04;68.73;101882.47;5069395;28;1575;-79
2023/04/16 10:59:06;;;;;;;;;;;;;;;5.02;68.70;101874.59;5066408;28;2018;-78
2023/04/16 11:01:32;;;;;;;;;;;;;;;5.00;68.86;101877.41;5067734;28;1895;-79
2023/04/16 11:04:00;;;;;;;;;;;;;;;5.03;68.71;101881.63;5067025;28;1580;-77
2023/04/16 11:06:27;;;;;;;;;;;;;;;5.06;68.73;101875.97;5060459;28;1733;-76
2023/04/16 11:08:54;;;;;;;;;;;;;;;5.08;68.64;101881.16;5061161;28;2023;-79
2023/04/16 11:11:21;;;;;;;;;;;;;;;5.07;68.64;101887.50;5050285;28;1635;-80
2023/04/16 11:13:48;;;;;;;;;;;;;;;5.09;68.50;101872.13;5067542;28;2120;-79
2023/04/16 11:16:14;;;;;;;;;;;;;;;5.13;68.61;101884.22;5048722;28;1732;-78
2023/04/16 11:18:41;;;;;;;;;;;;;;;5.08;68.69;101887.31;5068643;28;1914;-78
2023/04/16 11:21:07;;;;;;;;;;;;;;;5.09;68.84;101889.03;5066438;28;1995;-79
2023/04/16 11:23:34;;;;;;;;;;;;;;;5.12;68.54;101882.56;5049121;28;1758;-77
2023/04/16 11:26:02;;;;;;;;;;;;;;;5.12;68.78;101878.03;5077009;28;1944;-78
2023/04/16 11:28:28;;;;;;;;;;;;;;;5.11;68.84;101881.69;5081662;28;1073;-77
2023/04/16 11:30:55;;;;;;;;;;;;;;;5.12;68.86;101877.22;5081810;28;2125;-78
2023/04/16 11:33:21;;;;;;;;;;;;;;;5.12;68.66;101882.56;5063436;28;1273;-78
2023/04/16 11:35:49;;;;;;;;;;;;;;;5.10;68.73;101880.00;5079913;28;2016;-78
2023/04/16 11:38:15;;;;;;;;;;;;;;;5.09;68.92;101875.69;5055854;28;2004;-80
2023/04/16 11:40:42;;;;;;;;;;;;;;;5.11;68.73;101870.16;5041292;28;4906;-77
2023/04/16 11:43:08;;;;;;;;;;;;;;;5.10;68.91;101871.16;5067108;28;4890;-78
2023/04/16 11:45:35;;;;;;;;;;;;;;;5.11;68.89;101873.66;5071416;28;3368;-78
2023/04/16 11:48:02;;;;;;;;;;;;;;;5.10;68.97;101874.69;5076445;28;1825;-77
2023/04/16 11:50:28;;;;;;;;;;;;;;;5.10;69.19;101873.84;5082152;28;1433;-76
2023/04/16 11:52:55;;;;;;;;;;;;;;;5.11;69.11;101872.84;5070184;28;1921;-78
2023/04/16 11:55:21;;;;;;;;;;;;;;;5.11;68.99;101872.84;5049092;28;2021;-77
2023/04/16 11:57:48;;;;;;;;;;;;;;;5.10;68.94;101872.00;5073965;28;3230;-77
2023/04/16 12:00:14;;;;;;;;;;;;;;;5.12;69.07;101871.88;5080289;28;2079;-77
2023/04/16 12:02:41;;;;;;;;;;;;;;;5.11;69.23;101876.34;5065015;28;1054;-75
2023/04/16 12:05:08;;;;;;;;;;;;;;;5.12;69.26;101870.03;5080724;28;2032;-77
2023/04/16 12:07:34;;;;;;;;;;;;;;;5.11;69.24;101865.66;5079042;28;2088;-79
2023/04/16 12:10:01;;;;;;;;;;;;;;;5.12;69.18;101862.03;5080444;28;2036;-77
2023/04/16 12:12:29;;;;;;;;;;;;;;;5.13;69.35;101871.69;5081545;28;1577;-78
2023/04/16 12:14:58;;;;;;;;;;;;;;;5.13;69.24;101868.19;5063127;28;2091;-78
2023/04/16 12:17:25;;;;;;;;;;;;;;;5.13;69.43;101871.69;5063430;28;1515;-77
2023/04/16 12:19:51;;;;;;;;;;;;;;;5.14;69.36;101869.84;5063696;28;1910;-78
2023/04/16 12:22:18;;;;;;;;;;;;;;;5.15;69.31;101869.72;5079243;28;2039;-78
2023/04/16 12:24:44;;;;;;;;;;;;;;;5.15;69.18;101869.72;5080410;28;2014;-78
2023/04/16 12:27:11;;;;;;;;;;;;;;;5.15;69.26;101869.72;5063550;28;1927;-78
2023/04/16 12:29:38;;;;;;;;;;;;;;;5.15;69.50;101864.38;5079341;28;2042;-76
2023/04/16 12:32:05;;;;;;;;;;;;;;;5.17;69.44;101869.56;5079993;28;1527;-79
2023/04/16 12:34:31;;;;;;;;;;;;;;;5.17;69.30;101873.06;5061728;28;2002;-78
2023/04/16 12:36:57;;;;;;;;;;;;;;;5.18;69.41;101874.75;5079598;28;2020;-79
2023/04/16 12:39:24;;;;;;;;;;;;;;;5.18;69.38;101876.59;5080614;28;1905;-75
2023/04/16 12:41:51;;;;;;;;;;;;;;;5.19;69.47;101872.94;5081614;28;1557;-78
2023/04/16 12:44:18;;;;;;;;;;;;;;;5.20;69.42;101871.91;5084858;28;2061;-78
2023/04/16 12:46:45;;;;;;;;;;;;;;;5.20;69.41;101869.25;5080325;28;4941;-78
2023/04/16 12:49:11;;;;;;;;;;;;;;;5.21;69.46;101870.94;5073747;28;4680;-78
2023/04/16 12:51:38;;;;;;;;;;;;;;;5.20;69.59;101870.09;5071198;28;1845;-78
2023/04/16 12:54:04;;;;;;;;;;;;;;;5.21;69.49;101869.13;5069122;28;3792;-76